メインページ
METAR-TAF:

METAR-TAF

空港 :

キュラソー島, オランダ領アンティル

ハト国際空港

緯度: 12-12N, 経度: 068-58W, 海抜: 9m

現時点の気象観測

当レポートは1時間4分前の21:00(UTC)に作成
の風 11kt
気温 27°C
湿度 70%
気圧 1015 hPa
視程10km以上
高度2100ftの雲はほとんどない

METAR: TNCC 192100Z 09011KT 9999 FEW021 27/21 Q1015 NOSIG

時間: 18:04 (22:04 UTC)

予報

当レポートは6時間14分前の15:50(UTC)に作成
予報は19日の 18時(UTC)から 20日の 18時(UTC)まで有効
の風 15kt
視程10km以上
高度2000ftの雲は散在している
確率 30% :
20日の 07時(UTC)から 20日の 18時(UTC)まで一時的に
の風 15kt、最大27ktの突風を伴う
視程: 5000m
高度1400ftの千切れ雲あり
にわか雨

TAF: TNCC 191550Z 1918/2018 10015KT 9999 SCT020 PROB30 TEMPO 2007/2018 08015G27KT 5000 SHRA BKN014

4,000以上の空港の気象観測と天気予報(METAR報とTAF報)

利用可能な観測所は地図上に黄色い丸と赤い丸で示す。

丸の上にカーソルを重ねると観測所名を参照できる。

次にクリックすると気象観測と天気予報を参照できる。

マップの切り替え:黒色「×」印の緑ボタンをクリックして拡大、「-」印の緑ボタンをクリックして縮小、緑色の三角印をクリックして隣りの地図に切り替え


METAR-TAF: